sensor_id;sensor_type;location;lat;lon;timestamp;temperature;humidity
78490;DHT22;67776;52.012;4.736;2023-03-04T00:02:00;6.30;71.35
78490;DHT22;67776;52.012;4.736;2023-03-04T00:04:25;6.35;71.24
78490;DHT22;67776;52.012;4.736;2023-03-04T00:06:51;6.37;71.09
78490;DHT22;67776;52.012;4.736;2023-03-04T00:09:16;6.32;71.40
78490;DHT22;67776;52.012;4.736;2023-03-04T00:11:41;6.32;71.02
78490;DHT22;67776;52.012;4.736;2023-03-04T00:14:06;6.32;70.97
78490;DHT22;67776;52.012;4.736;2023-03-04T00:16:32;6.37;70.91
78490;DHT22;67776;52.012;4.736;2023-03-04T00:18:57;6.40;71.51
78490;DHT22;67776;52.012;4.736;2023-03-04T00:21:23;6.33;71.52
78490;DHT22;67776;52.012;4.736;2023-03-04T00:23:49;6.37;71.56
78490;DHT22;67776;52.012;4.736;2023-03-04T00:26:15;6.37;71.75
78490;DHT22;67776;52.012;4.736;2023-03-04T00:28:40;6.36;72.30
78490;DHT22;67776;52.012;4.736;2023-03-04T00:31:06;6.35;71.24
78490;DHT22;67776;52.012;4.736;2023-03-04T00:33:32;6.32;71.60
78490;DHT22;67776;52.012;4.736;2023-03-04T00:35:57;6.33;71.81
78490;DHT22;67776;52.012;4.736;2023-03-04T00:38:23;6.30;72.36
78490;DHT22;67776;52.012;4.736;2023-03-04T00:40:48;6.26;72.57
78490;DHT22;67776;52.012;4.736;2023-03-04T00:43:14;6.29;71.93
78490;DHT22;67776;52.012;4.736;2023-03-04T00:45:39;6.30;72.66
78490;DHT22;67776;52.012;4.736;2023-03-04T00:48:04;6.36;72.10
78490;DHT22;67776;52.012;4.736;2023-03-04T00:50:30;6.36;71.87
78490;DHT22;67776;52.012;4.736;2023-03-04T00:52:55;6.35;71.67
78490;DHT22;67776;52.012;4.736;2023-03-04T00:55:20;6.32;71.67
78490;DHT22;67776;52.012;4.736;2023-03-04T00:57:46;6.29;71.91
78490;DHT22;67776;52.012;4.736;2023-03-04T01:00:12;6.33;72.16
78490;DHT22;67776;52.012;4.736;2023-03-04T01:02:38;6.40;72.14
78490;DHT22;67776;52.012;4.736;2023-03-04T01:05:04;6.26;72.04
78490;DHT22;67776;52.012;4.736;2023-03-04T01:07:30;6.32;71.64
78490;DHT22;67776;52.012;4.736;2023-03-04T01:09:55;6.30;71.45
78490;DHT22;67776;52.012;4.736;2023-03-04T01:12:20;6.28;71.13
78490;DHT22;67776;52.012;4.736;2023-03-04T01:14:46;6.28;71.29
78490;DHT22;67776;52.012;4.736;2023-03-04T01:17:11;6.32;71.81
78490;DHT22;67776;52.012;4.736;2023-03-04T01:19:36;6.28;71.98
78490;DHT22;67776;52.012;4.736;2023-03-04T01:22:02;6.26;72.51
78490;DHT22;67776;52.012;4.736;2023-03-04T01:24:27;6.28;72.08
78490;DHT22;67776;52.012;4.736;2023-03-04T01:26:54;6.30;72.45
78490;DHT22;67776;52.012;4.736;2023-03-04T01:29:19;6.28;72.30
78490;DHT22;67776;52.012;4.736;2023-03-04T01:31:44;6.26;72.64
78490;DHT22;67776;52.012;4.736;2023-03-04T01:34:10;6.24;72.90
78490;DHT22;67776;52.012;4.736;2023-03-04T01:36:35;6.21;73.80
78490;DHT22;67776;52.012;4.736;2023-03-04T01:39:01;6.22;71.99
78490;DHT22;67776;52.012;4.736;2023-03-04T01:41:26;6.14;70.84
78490;DHT22;67776;52.012;4.736;2023-03-04T01:43:55;6.21;71.35
78490;DHT22;67776;52.012;4.736;2023-03-04T01:46:21;6.21;71.23
78490;DHT22;67776;52.012;4.736;2023-03-04T01:48:46;6.24;71.72
78490;DHT22;67776;52.012;4.736;2023-03-04T01:51:14;6.21;71.67
78490;DHT22;67776;52.012;4.736;2023-03-04T01:53:40;6.17;72.62
78490;DHT22;67776;52.012;4.736;2023-03-04T01:56:18;6.17;72.09
78490;DHT22;67776;52.012;4.736;2023-03-04T01:58:44;6.19;71.67
78490;DHT22;67776;52.012;4.736;2023-03-04T02:01:11;6.28;71.10
78490;DHT22;67776;52.012;4.736;2023-03-04T02:03:37;6.26;71.21
78490;DHT22;67776;52.012;4.736;2023-03-04T02:06:03;6.29;71.70
78490;DHT22;67776;52.012;4.736;2023-03-04T02:08:28;6.24;71.49
78490;DHT22;67776;52.012;4.736;2023-03-04T02:10:54;6.25;71.51
78490;DHT22;67776;52.012;4.736;2023-03-04T02:13:19;6.28;71.74
78490;DHT22;67776;52.012;4.736;2023-03-04T02:15:45;6.28;71.28
78490;DHT22;67776;52.012;4.736;2023-03-04T02:28:45;6.19;71.76
78490;DHT22;67776;52.012;4.736;2023-03-04T02:33:53;6.19;71.99
78490;DHT22;67776;52.012;4.736;2023-03-04T02:36:19;6.21;71.70
78490;DHT22;67776;52.012;4.736;2023-03-04T02:38:45;6.21;72.25
78490;DHT22;67776;52.012;4.736;2023-03-04T02:41:12;6.18;73.07
78490;DHT22;67776;52.012;4.736;2023-03-04T02:43:39;6.12;73.13
78490;DHT22;67776;52.012;4.736;2023-03-04T02:46:04;6.11;73.06
78490;DHT22;67776;52.012;4.736;2023-03-04T02:48:30;6.07;73.93
78490;DHT22;67776;52.012;4.736;2023-03-04T02:50:56;6.09;74.16
78490;DHT22;67776;52.012;4.736;2023-03-04T02:53:21;6.07;74.25
78490;DHT22;67776;52.012;4.736;2023-03-04T02:55:47;6.02;74.43
78490;DHT22;67776;52.012;4.736;2023-03-04T02:58:13;6.02;74.58
78490;DHT22;67776;52.012;4.736;2023-03-04T03:00:39;6.01;74.10
78490;DHT22;67776;52.012;4.736;2023-03-04T03:03:05;6.02;74.05
78490;DHT22;67776;52.012;4.736;2023-03-04T03:05:32;6.02;75.17
78490;DHT22;67776;52.012;4.736;2023-03-04T03:07:57;6.05;74.59
78490;DHT22;67776;52.012;4.736;2023-03-04T03:10:23;6.07;73.69
78490;DHT22;67776;52.012;4.736;2023-03-04T03:12:48;6.09;73.71
78490;DHT22;67776;52.012;4.736;2023-03-04T03:15:14;6.07;74.59
78490;DHT22;67776;52.012;4.736;2023-03-04T03:17:40;6.05;73.62
78490;DHT22;67776;52.012;4.736;2023-03-04T03:20:06;6.05;73.76
78490;DHT22;67776;52.012;4.736;2023-03-04T03:22:32;6.07;73.73
78490;DHT22;67776;52.012;4.736;2023-03-04T03:24:58;6.04;74.35
78490;DHT22;67776;52.012;4.736;2023-03-04T03:27:23;6.04;73.86
78490;DHT22;67776;52.012;4.736;2023-03-04T03:29:48;6.02;74.80
78490;DHT22;67776;52.012;4.736;2023-03-04T03:32:14;6.07;74.10
78490;DHT22;67776;52.012;4.736;2023-03-04T03:34:39;6.02;73.89
78490;DHT22;67776;52.012;4.736;2023-03-04T03:37:04;6.04;73.08
78490;DHT22;67776;52.012;4.736;2023-03-04T03:39:30;6.04;73.84
78490;DHT22;67776;52.012;4.736;2023-03-04T03:41:55;6.01;73.92
78490;DHT22;67776;52.012;4.736;2023-03-04T03:44:20;6.04;73.27
78490;DHT22;67776;52.012;4.736;2023-03-04T03:46:46;6.07;73.57
78490;DHT22;67776;52.012;4.736;2023-03-04T03:49:11;6.04;73.80
78490;DHT22;67776;52.012;4.736;2023-03-04T03:51:37;6.01;73.48
78490;DHT22;67776;52.012;4.736;2023-03-04T03:54:02;6.02;73.97
78490;DHT22;67776;52.012;4.736;2023-03-04T03:56:28;6.00;74.92
78490;DHT22;67776;52.012;4.736;2023-03-04T03:58:53;6.02;73.79
78490;DHT22;67776;52.012;4.736;2023-03-04T04:01:18;6.00;74.63
78490;DHT22;67776;52.012;4.736;2023-03-04T04:03:43;5.98;74.64
78490;DHT22;67776;52.012;4.736;2023-03-04T04:06:09;5.93;74.57
78490;DHT22;67776;52.012;4.736;2023-03-04T04:08:34;5.95;74.56
78490;DHT22;67776;52.012;4.736;2023-03-04T04:10:59;5.98;74.95
78490;DHT22;67776;52.012;4.736;2023-03-04T04:13:25;6.01;75.27
78490;DHT22;67776;52.012;4.736;2023-03-04T04:15:51;5.95;74.12
78490;DHT22;67776;52.012;4.736;2023-03-04T04:18:17;5.94;74.56
78490;DHT22;67776;52.012;4.736;2023-03-04T04:20:42;6.00;73.52
78490;DHT22;67776;52.012;4.736;2023-03-04T04:23:07;6.01;73.51
78490;DHT22;67776;52.012;4.736;2023-03-04T04:25:33;6.02;72.85
78490;DHT22;67776;52.012;4.736;2023-03-04T04:27:58;6.00;73.75
78490;DHT22;67776;52.012;4.736;2023-03-04T04:30:24;6.02;73.76
78490;DHT22;67776;52.012;4.736;2023-03-04T04:32:49;6.04;74.15
78490;DHT22;67776;52.012;4.736;2023-03-04T04:35:15;6.02;73.80
78490;DHT22;67776;52.012;4.736;2023-03-04T04:37:40;6.01;74.42
78490;DHT22;67776;52.012;4.736;2023-03-04T04:40:06;6.00;74.33
78490;DHT22;67776;52.012;4.736;2023-03-04T04:42:32;6.01;74.39
78490;DHT22;67776;52.012;4.736;2023-03-04T04:44:57;6.00;75.01
78490;DHT22;67776;52.012;4.736;2023-03-04T04:47:22;5.89;74.88
78490;DHT22;67776;52.012;4.736;2023-03-04T04:49:48;5.81;75.21
78490;DHT22;67776;52.012;4.736;2023-03-04T04:52:13;5.87;74.29
78490;DHT22;67776;52.012;4.736;2023-03-04T04:54:38;5.91;74.20
78490;DHT22;67776;52.012;4.736;2023-03-04T04:57:04;5.90;74.65
78490;DHT22;67776;52.012;4.736;2023-03-04T04:59:29;5.93;73.35
78490;DHT22;67776;52.012;4.736;2023-03-04T05:01:54;5.97;73.01
78490;DHT22;67776;52.012;4.736;2023-03-04T05:04:19;5.98;73.35
78490;DHT22;67776;52.012;4.736;2023-03-04T05:06:45;5.90;73.33
78490;DHT22;67776;52.012;4.736;2023-03-04T05:09:11;5.91;73.91
78490;DHT22;67776;52.012;4.736;2023-03-04T05:11:36;5.89;73.87
78490;DHT22;67776;52.012;4.736;2023-03-04T05:14:02;5.89;74.29
78490;DHT22;67776;52.012;4.736;2023-03-04T05:16:27;5.83;75.04
78490;DHT22;67776;52.012;4.736;2023-03-04T05:18:52;5.90;73.64
78490;DHT22;67776;52.012;4.736;2023-03-04T05:21:18;5.89;74.29
78490;DHT22;67776;52.012;4.736;2023-03-04T05:23:43;5.86;74.43
78490;DHT22;67776;52.012;4.736;2023-03-04T05:26:12;5.84;74.27
78490;DHT22;67776;52.012;4.736;2023-03-04T05:28:38;5.90;74.24
78490;DHT22;67776;52.012;4.736;2023-03-04T05:31:03;5.87;74.39
78490;DHT22;67776;52.012;4.736;2023-03-04T05:33:29;5.83;74.50
78490;DHT22;67776;52.012;4.736;2023-03-04T05:35:55;5.84;74.96
78490;DHT22;67776;52.012;4.736;2023-03-04T05:38:20;5.91;74.08
78490;DHT22;67776;52.012;4.736;2023-03-04T05:40:47;5.91;75.22
78490;DHT22;67776;52.012;4.736;2023-03-04T05:43:12;5.84;75.19
78490;DHT22;67776;52.012;4.736;2023-03-04T05:45:38;5.84;75.37
78490;DHT22;67776;52.012;4.736;2023-03-04T05:48:05;5.84;75.87
78490;DHT22;67776;52.012;4.736;2023-03-04T05:50:30;5.86;76.17
78490;DHT22;67776;52.012;4.736;2023-03-04T05:52:56;5.83;76.13
78490;DHT22;67776;52.012;4.736;2023-03-04T05:55:21;5.84;75.82
78490;DHT22;67776;52.012;4.736;2023-03-04T05:57:47;5.77;76.72
78490;DHT22;67776;52.012;4.736;2023-03-04T06:00:14;5.81;76.37
78490;DHT22;67776;52.012;4.736;2023-03-04T06:02:40;5.89;75.90
78490;DHT22;67776;52.012;4.736;2023-03-04T06:05:07;5.87;76.37
78490;DHT22;67776;52.012;4.736;2023-03-04T06:07:33;5.84;76.88
78490;DHT22;67776;52.012;4.736;2023-03-04T06:09:58;5.81;77.04
78490;DHT22;67776;52.012;4.736;2023-03-04T06:12:24;5.75;76.57
78490;DHT22;67776;52.012;4.736;2023-03-04T06:14:49;5.77;76.78
78490;DHT22;67776;52.012;4.736;2023-03-04T06:17:15;5.81;77.07
78490;DHT22;67776;52.012;4.736;2023-03-04T06:19:40;5.81;76.98
78490;DHT22;67776;52.012;4.736;2023-03-04T06:22:06;5.81;77.58
78490;DHT22;67776;52.012;4.736;2023-03-04T06:24:32;5.80;77.28
78490;DHT22;67776;52.012;4.736;2023-03-04T06:26:57;5.80;77.25
78490;DHT22;67776;52.012;4.736;2023-03-04T06:29:22;5.84;77.54
78490;DHT22;67776;52.012;4.736;2023-03-04T06:31:48;5.83;77.59
78490;DHT22;67776;52.012;4.736;2023-03-04T06:34:13;5.77;78.64
78490;DHT22;67776;52.012;4.736;2023-03-04T06:36:38;5.78;78.28
78490;DHT22;67776;52.012;4.736;2023-03-04T06:39:05;5.83;77.81
78490;DHT22;67776;52.012;4.736;2023-03-04T06:41:31;5.87;77.30
78490;DHT22;67776;52.012;4.736;2023-03-04T06:43:56;5.89;77.85
78490;DHT22;67776;52.012;4.736;2023-03-04T06:46:22;5.90;77.75
78490;DHT22;67776;52.012;4.736;2023-03-04T06:48:47;5.87;78.00
78490;DHT22;67776;52.012;4.736;2023-03-04T06:51:13;5.86;78.13
78490;DHT22;67776;52.012;4.736;2023-03-04T06:53:39;5.86;78.24
78490;DHT22;67776;52.012;4.736;2023-03-04T06:56:05;5.83;78.08
78490;DHT22;67776;52.012;4.736;2023-03-04T06:58:31;5.83;78.48
78490;DHT22;67776;52.012;4.736;2023-03-04T07:00:56;5.80;78.37
78490;DHT22;67776;52.012;4.736;2023-03-04T07:03:22;5.78;79.01
78490;DHT22;67776;52.012;4.736;2023-03-04T07:05:47;5.83;78.99
78490;DHT22;67776;52.012;4.736;2023-03-04T07:08:13;5.89;78.02
78490;DHT22;67776;52.012;4.736;2023-03-04T07:10:38;5.90;77.80
78490;DHT22;67776;52.012;4.736;2023-03-04T07:13:03;5.95;77.62
78490;DHT22;67776;52.012;4.736;2023-03-04T07:15:29;5.97;77.44
78490;DHT22;67776;52.012;4.736;2023-03-04T07:17:54;6.04;77.02
78490;DHT22;67776;52.012;4.736;2023-03-04T07:20:20;6.07;76.86
78490;DHT22;67776;52.012;4.736;2023-03-04T07:22:45;6.09;76.86
78490;DHT22;67776;52.012;4.736;2023-03-04T07:25:11;6.11;76.02
78490;DHT22;67776;52.012;4.736;2023-03-04T07:27:36;6.14;76.55
78490;DHT22;67776;52.012;4.736;2023-03-04T07:30:06;6.14;76.71
78490;DHT22;67776;52.012;4.736;2023-03-04T07:32:31;6.18;75.53
78490;DHT22;67776;52.012;4.736;2023-03-04T07:34:58;6.17;75.87
78490;DHT22;67776;52.012;4.736;2023-03-04T07:37:23;6.18;76.38
78490;DHT22;67776;52.012;4.736;2023-03-04T07:39:49;6.18;77.13
78490;DHT22;67776;52.012;4.736;2023-03-04T07:42:14;6.22;77.81
78490;DHT22;67776;52.012;4.736;2023-03-04T07:44:39;6.19;78.37
78490;DHT22;67776;52.012;4.736;2023-03-04T07:47:05;6.19;78.89
78490;DHT22;67776;52.012;4.736;2023-03-04T07:49:30;6.18;79.03
78490;DHT22;67776;52.012;4.736;2023-03-04T07:51:55;6.25;79.29
78490;DHT22;67776;52.012;4.736;2023-03-04T07:54:21;6.28;79.32
78490;DHT22;67776;52.012;4.736;2023-03-04T07:56:46;6.33;79.42
78490;DHT22;67776;52.012;4.736;2023-03-04T07:59:11;6.35;80.30
78490;DHT22;67776;52.012;4.736;2023-03-04T08:01:37;6.36;79.76
78490;DHT22;67776;52.012;4.736;2023-03-04T08:04:06;6.52;79.54
78490;DHT22;67776;52.012;4.736;2023-03-04T08:06:32;6.60;79.53
78490;DHT22;67776;52.012;4.736;2023-03-04T08:09:05;6.60;79.04
78490;DHT22;67776;52.012;4.736;2023-03-04T08:11:31;6.60;79.07
78490;DHT22;67776;52.012;4.736;2023-03-04T08:13:57;6.62;79.05
78490;DHT22;67776;52.012;4.736;2023-03-04T08:16:23;6.69;79.29
78490;DHT22;67776;52.012;4.736;2023-03-04T08:18:54;6.73;78.59
78490;DHT22;67776;52.012;4.736;2023-03-04T08:21:21;6.87;78.21
78490;DHT22;67776;52.012;4.736;2023-03-04T08:23:48;7.01;78.50
78490;DHT22;67776;52.012;4.736;2023-03-04T08:26:24;7.08;77.65
78490;DHT22;67776;52.012;4.736;2023-03-04T08:28:50;7.20;77.49
78490;DHT22;67776;52.012;4.736;2023-03-04T08:31:17;7.18;77.63
78490;DHT22;67776;52.012;4.736;2023-03-04T08:33:43;7.23;77.39
78490;DHT22;67776;52.012;4.736;2023-03-04T08:36:09;7.19;77.48
78490;DHT22;67776;52.012;4.736;2023-03-04T08:38:35;7.09;78.75
78490;DHT22;67776;52.012;4.736;2023-03-04T08:41:01;7.14;78.92
78490;DHT22;67776;52.012;4.736;2023-03-04T08:43:31;7.26;78.64
78490;DHT22;67776;52.012;4.736;2023-03-04T08:45:57;7.25;78.90
78490;DHT22;67776;52.012;4.736;2023-03-04T08:48:23;7.26;78.19
78490;DHT22;67776;52.012;4.736;2023-03-04T08:50:49;7.32;78.05
78490;DHT22;67776;52.012;4.736;2023-03-04T08:53:15;7.36;78.41
78490;DHT22;67776;52.012;4.736;2023-03-04T08:55:44;7.52;77.83
78490;DHT22;67776;52.012;4.736;2023-03-04T08:58:10;7.59;77.67
78490;DHT22;67776;52.012;4.736;2023-03-04T09:00:38;7.70;76.94
78490;DHT22;67776;52.012;4.736;2023-03-04T09:03:05;7.74;76.90
78490;DHT22;67776;52.012;4.736;2023-03-04T09:05:31;7.59;77.69
78490;DHT22;67776;52.012;4.736;2023-03-04T09:07:59;7.47;77.47
78490;DHT22;67776;52.012;4.736;2023-03-04T09:10:25;7.32;79.04
78490;DHT22;67776;52.012;4.736;2023-03-04T09:12:50;7.20;80.96
78490;DHT22;67776;52.012;4.736;2023-03-04T09:15:16;7.16;81.91
78490;DHT22;67776;52.012;4.736;2023-03-04T09:17:42;7.14;83.70
78490;DHT22;67776;52.012;4.736;2023-03-04T09:20:08;7.23;83.34
78490;DHT22;67776;52.012;4.736;2023-03-04T09:22:39;7.43;82.69
78490;DHT22;67776;52.012;4.736;2023-03-04T09:25:05;7.56;82.26
78490;DHT22;67776;52.012;4.736;2023-03-04T09:27:31;7.64;82.35
78490;DHT22;67776;52.012;4.736;2023-03-04T09:29:57;7.85;80.89
78490;DHT22;67776;52.012;4.736;2023-03-04T09:32:22;7.95;81.18
78490;DHT22;67776;52.012;4.736;2023-03-04T09:34:48;7.91;80.61
78490;DHT22;67776;52.012;4.736;2023-03-04T09:37:13;7.78;81.19
78490;DHT22;67776;52.012;4.736;2023-03-04T09:39:41;7.70;81.64
78490;DHT22;67776;52.012;4.736;2023-03-04T09:42:15;7.69;81.65
78490;DHT22;67776;52.012;4.736;2023-03-04T09:44:45;7.53;81.55
78490;DHT22;67776;52.012;4.736;2023-03-04T09:47:13;7.32;83.90
78490;DHT22;67776;52.012;4.736;2023-03-04T09:49:41;7.26;84.70
78490;DHT22;67776;52.012;4.736;2023-03-04T09:55:29;7.35;85.93
78490;DHT22;67776;52.012;4.736;2023-03-04T10:00:57;7.97;84.71
78490;DHT22;67776;52.012;4.736;2023-03-04T10:04:13;7.92;84.28
78490;DHT22;67776;52.012;4.736;2023-03-04T10:06:20;7.84;84.19
78490;DHT22;67776;52.012;4.736;2023-03-04T10:08:49;7.91;82.46
78490;DHT22;67776;52.012;4.736;2023-03-04T10:16:52;8.64;82.65
78490;DHT22;67776;52.012;4.736;2023-03-04T10:21:52;8.38;82.24
78490;DHT22;67776;52.012;4.736;2023-03-04T10:24:20;8.39;81.43
78490;DHT22;67776;52.012;4.736;2023-03-04T10:26:51;8.35;80.38
78490;DHT22;67776;52.012;4.736;2023-03-04T10:29:20;8.38;80.43
78490;DHT22;67776;52.012;4.736;2023-03-04T10:31:47;8.40;78.87
78490;DHT22;67776;52.012;4.736;2023-03-04T10:34:15;8.28;79.65
78490;DHT22;67776;52.012;4.736;2023-03-04T10:39:24;9.36;77.72
78490;DHT22;67776;52.012;4.736;2023-03-04T10:44:41;9.30;74.80
78490;DHT22;67776;52.012;4.736;2023-03-04T10:47:09;10.06;73.86
78490;DHT22;67776;52.012;4.736;2023-03-04T10:49:49;10.09;73.58
78490;DHT22;67776;52.012;4.736;2023-03-04T10:52:34;9.64;73.34
78490;DHT22;67776;52.012;4.736;2023-03-04T10:55:14;9.38;73.89
78490;DHT22;67776;52.012;4.736;2023-03-04T10:57:42;9.36;73.50
78490;DHT22;67776;52.012;4.736;2023-03-04T11:02:47;9.33;74.29
78490;DHT22;67776;52.012;4.736;2023-03-04T11:05:21;9.21;74.14
78490;DHT22;67776;52.012;4.736;2023-03-04T11:07:58;9.15;74.83
78490;DHT22;67776;52.012;4.736;2023-03-04T11:13:18;9.16;74.12
78490;DHT22;67776;52.012;4.736;2023-03-04T11:16:02;9.04;74.61
78490;DHT22;67776;52.012;4.736;2023-03-04T11:18:33;9.08;74.69
78490;DHT22;67776;52.012;4.736;2023-03-04T11:21:01;8.89;74.68
78490;DHT22;67776;52.012;4.736;2023-03-04T11:23:34;8.70;76.34
78490;DHT22;67776;52.012;4.736;2023-03-04T11:26:08;8.50;78.96
78490;DHT22;67776;52.012;4.736;2023-03-04T11:31:13;8.36;80.66
78490;DHT22;67776;52.012;4.736;2023-03-04T11:33:54;8.42;80.84
78490;DHT22;67776;52.012;4.736;2023-03-04T11:36:39;8.47;81.43
78490;DHT22;67776;52.012;4.736;2023-03-04T11:39:33;8.56;80.77
78490;DHT22;67776;52.012;4.736;2023-03-04T11:42:44;8.64;79.86
78490;DHT22;67776;52.012;4.736;2023-03-04T11:44:51;8.64;80.00
78490;DHT22;67776;52.012;4.736;2023-03-04T11:47:24;8.71;78.79
78490;DHT22;67776;52.012;4.736;2023-03-04T12:03:12;8.35;81.11
78490;DHT22;67776;52.012;4.736;2023-03-04T12:08:40;8.59;81.35
78490;DHT22;67776;52.012;4.736;2023-03-04T12:14:20;9.19;78.14
78490;DHT22;67776;52.012;4.736;2023-03-04T12:17:13;9.49;77.49
78490;DHT22;67776;52.012;4.736;2023-03-04T12:30:32;10.26;71.29
78490;DHT22;67776;52.012;4.736;2023-03-04T12:38:55;9.15;74.21
78490;DHT22;67776;52.012;4.736;2023-03-04T12:44:14;8.98;74.56
78490;DHT22;67776;52.012;4.736;2023-03-04T12:46:56;8.87;75.31
78490;DHT22;67776;52.012;4.736;2023-03-04T12:49:57;8.89;74.09
78490;DHT22;67776;52.012;4.736;2023-03-04T12:52:40;9.05;73.37
78490;DHT22;67776;52.012;4.736;2023-03-04T12:55:15;9.26;73.22
78490;DHT22;67776;52.012;4.736;2023-03-04T12:57:41;9.04;73.71
78490;DHT22;67776;52.012;4.736;2023-03-04T13:00:12;9.16;73.53
78490;DHT22;67776;52.012;4.736;2023-03-04T13:02:50;9.07;73.31
78490;DHT22;67776;52.012;4.736;2023-03-04T13:17:48;8.95;69.12
78490;DHT22;67776;52.012;4.736;2023-03-04T13:25:40;9.26;67.95
78490;DHT22;67776;52.012;4.736;2023-03-04T13:53:47;9.32;66.65
78490;DHT22;67776;52.012;4.736;2023-03-04T13:58:42;9.02;67.39
78490;DHT22;67776;52.012;4.736;2023-03-04T14:01:27;8.98;66.04
78490;DHT22;67776;52.012;4.736;2023-03-04T14:03:53;9.30;65.90
78490;DHT22;67776;52.012;4.736;2023-03-04T14:06:30;9.67;64.41
78490;DHT22;67776;52.012;4.736;2023-03-04T14:08:56;10.13;63.50
78490;DHT22;67776;52.012;4.736;2023-03-04T14:11:34;10.42;62.67
78490;DHT22;67776;52.012;4.736;2023-03-04T14:14:04;10.31;62.17
78490;DHT22;67776;52.012;4.736;2023-03-04T14:16:36;10.08;63.04
78490;DHT22;67776;52.012;4.736;2023-03-04T14:19:06;9.94;63.29
78490;DHT22;67776;52.012;4.736;2023-03-04T14:21:34;9.69;64.34
78490;DHT22;67776;52.012;4.736;2023-03-04T14:24:06;9.49;64.33
78490;DHT22;67776;52.012;4.736;2023-03-04T14:26:32;9.33;64.75
78490;DHT22;67776;52.012;4.736;2023-03-04T14:28:58;9.29;65.38
78490;DHT22;67776;52.012;4.736;2023-03-04T14:31:27;9.11;66.32
78490;DHT22;67776;52.012;4.736;2023-03-04T14:33:58;9.14;66.41
78490;DHT22;67776;52.012;4.736;2023-03-04T14:36:28;9.01;68.46
78490;DHT22;67776;52.012;4.736;2023-03-04T14:38:56;8.91;70.10
78490;DHT22;67776;52.012;4.736;2023-03-04T14:41:34;8.80;70.76
78490;DHT22;67776;52.012;4.736;2023-03-04T14:46:49;8.68;70.16
78490;DHT22;67776;52.012;4.736;2023-03-04T14:49:16;8.63;69.58
78490;DHT22;67776;52.012;4.736;2023-03-04T14:51:49;8.71;69.82
78490;DHT22;67776;52.012;4.736;2023-03-04T14:56:57;8.52;70.15
78490;DHT22;67776;52.012;4.736;2023-03-04T15:02:08;8.38;73.00
78490;DHT22;67776;52.012;4.736;2023-03-04T15:04:33;8.29;73.29
78490;DHT22;67776;52.012;4.736;2023-03-04T15:07:02;8.11;73.65
78490;DHT22;67776;52.012;4.736;2023-03-04T15:09:27;8.02;74.19
78490;DHT22;67776;52.012;4.736;2023-03-04T15:12:05;8.01;74.23
78490;DHT22;67776;52.012;4.736;2023-03-04T15:14:53;8.05;73.78
78490;DHT22;67776;52.012;4.736;2023-03-04T15:17:36;8.04;73.30
78490;DHT22;67776;52.012;4.736;2023-03-04T15:22:34;8.33;72.21
78490;DHT22;67776;52.012;4.736;2023-03-04T15:25:00;8.35;71.11
78490;DHT22;67776;52.012;4.736;2023-03-04T15:27:27;8.28;70.52
78490;DHT22;67776;52.012;4.736;2023-03-04T15:29:55;8.22;70.47
78490;DHT22;67776;52.012;4.736;2023-03-04T15:32:29;8.05;70.14
78490;DHT22;67776;52.012;4.736;2023-03-04T15:34:55;8.02;70.25
78490;DHT22;67776;52.012;4.736;2023-03-04T15:37:25;8.08;71.00
78490;DHT22;67776;52.012;4.736;2023-03-04T15:39:51;7.95;70.87
78490;DHT22;67776;52.012;4.736;2023-03-04T15:42:17;7.97;71.02
78490;DHT22;67776;52.012;4.736;2023-03-04T15:44:43;8.06;70.16
78490;DHT22;67776;52.012;4.736;2023-03-04T15:47:10;8.04;70.36
78490;DHT22;67776;52.012;4.736;2023-03-04T15:49:39;7.98;70.19
78490;DHT22;67776;52.012;4.736;2023-03-04T15:52:06;8.02;70.69
78490;DHT22;67776;52.012;4.736;2023-03-04T15:54:32;8.08;70.15
78490;DHT22;67776;52.012;4.736;2023-03-04T15:56:58;7.95;70.48
78490;DHT22;67776;52.012;4.736;2023-03-04T15:59:24;7.94;69.65
78490;DHT22;67776;52.012;4.736;2023-03-04T16:01:50;7.90;69.70
78490;DHT22;67776;52.012;4.736;2023-03-04T16:04:16;7.87;69.86
78490;DHT22;67776;52.012;4.736;2023-03-04T16:06:43;7.85;70.05
78490;DHT22;67776;52.012;4.736;2023-03-04T16:09:14;7.66;71.72
78490;DHT22;67776;52.012;4.736;2023-03-04T16:11:43;7.69;72.21
78490;DHT22;67776;52.012;4.736;2023-03-04T16:14:11;7.77;71.93
78490;DHT22;67776;52.012;4.736;2023-03-04T16:16:38;7.71;70.38
78490;DHT22;67776;52.012;4.736;2023-03-04T16:19:04;7.73;70.09
78490;DHT22;67776;52.012;4.736;2023-03-04T16:21:29;7.73;70.14
78490;DHT22;67776;52.012;4.736;2023-03-04T16:23:54;7.81;70.09
78490;DHT22;67776;52.012;4.736;2023-03-04T16:26:21;7.74;70.52
78490;DHT22;67776;52.012;4.736;2023-03-04T16:28:47;7.71;70.49
78490;DHT22;67776;52.012;4.736;2023-03-04T16:31:14;7.64;69.18
78490;DHT22;67776;52.012;4.736;2023-03-04T16:33:39;7.71;69.40
78490;DHT22;67776;52.012;4.736;2023-03-04T16:36:19;7.57;69.66
78490;DHT22;67776;52.012;4.736;2023-03-04T16:38:45;7.67;70.16
78490;DHT22;67776;52.012;4.736;2023-03-04T16:41:12;7.53;69.91
78490;DHT22;67776;52.012;4.736;2023-03-04T16:43:39;7.60;69.85
78490;DHT22;67776;52.012;4.736;2023-03-04T16:46:05;7.56;70.30
78490;DHT22;67776;52.012;4.736;2023-03-04T16:48:30;7.55;70.22
78490;DHT22;67776;52.012;4.736;2023-03-04T16:50:55;7.43;70.36
78490;DHT22;67776;52.012;4.736;2023-03-04T16:53:31;7.43;70.37
78490;DHT22;67776;52.012;4.736;2023-03-04T16:56:03;7.45;71.33
78490;DHT22;67776;52.012;4.736;2023-03-04T16:58:28;7.50;70.79
78490;DHT22;67776;52.012;4.736;2023-03-04T17:00:54;7.55;70.77
78490;DHT22;67776;52.012;4.736;2023-03-04T17:03:19;7.52;71.07
78490;DHT22;67776;52.012;4.736;2023-03-04T17:05:44;7.52;71.02
78490;DHT22;67776;52.012;4.736;2023-03-04T17:08:12;7.46;71.59
78490;DHT22;67776;52.012;4.736;2023-03-04T17:10:37;7.39;72.65
78490;DHT22;67776;52.012;4.736;2023-03-04T17:13:03;7.25;73.85
78490;DHT22;67776;52.012;4.736;2023-03-04T17:15:28;7.16;74.82
78490;DHT22;67776;52.012;4.736;2023-03-04T17:17:53;7.09;74.91
78490;DHT22;67776;52.012;4.736;2023-03-04T17:20:19;7.14;74.99
78490;DHT22;67776;52.012;4.736;2023-03-04T17:22:44;7.11;75.37
78490;DHT22;67776;52.012;4.736;2023-03-04T17:25:10;7.09;75.57
78490;DHT22;67776;52.012;4.736;2023-03-04T17:27:35;7.04;75.58
78490;DHT22;67776;52.012;4.736;2023-03-04T17:30:02;7.04;76.13
78490;DHT22;67776;52.012;4.736;2023-03-04T17:32:28;6.95;75.74
78490;DHT22;67776;52.012;4.736;2023-03-04T17:34:56;7.01;75.86
78490;DHT22;67776;52.012;4.736;2023-03-04T17:37:21;7.05;75.90
78490;DHT22;67776;52.012;4.736;2023-03-04T17:39:47;7.07;75.11
78490;DHT22;67776;52.012;4.736;2023-03-04T17:42:12;7.07;74.73
78490;DHT22;67776;52.012;4.736;2023-03-04T17:44:38;7.02;74.42
78490;DHT22;67776;52.012;4.736;2023-03-04T17:47:04;7.05;74.66
78490;DHT22;67776;52.012;4.736;2023-03-04T17:49:29;7.08;74.67
78490;DHT22;67776;52.012;4.736;2023-03-04T17:51:55;7.02;75.28
78490;DHT22;67776;52.012;4.736;2023-03-04T17:54:20;7.02;74.55
78490;DHT22;67776;52.012;4.736;2023-03-04T17:56:46;7.05;74.59
78490;DHT22;67776;52.012;4.736;2023-03-04T17:59:16;7.08;74.51
78490;DHT22;67776;52.012;4.736;2023-03-04T18:01:43;7.05;74.17
78490;DHT22;67776;52.012;4.736;2023-03-04T18:04:12;7.05;73.47